createdAt,value
2022-11-29T00:01:15.096Z,21.67
2022-11-29T00:03:41.746Z,21.88
2022-11-29T00:06:11.960Z,20.33
2022-11-29T00:08:39.352Z,20.08
2022-11-29T00:11:08.139Z,19.90
2022-11-29T00:13:35.236Z,20.33
2022-11-29T00:16:07.484Z,19.83
2022-11-29T00:18:34.332Z,20.33
2022-11-29T00:21:05.842Z,20.60
2022-11-29T00:23:32.849Z,22.05
2022-11-29T00:26:07.787Z,22.13
2022-11-29T00:28:35.752Z,20.92
2022-11-29T00:31:23.054Z,24.23
2022-11-29T00:33:49.963Z,25.30
2022-11-29T00:36:17.213Z,25.30
2022-11-29T00:38:44.023Z,21.00
2022-11-29T00:41:11.198Z,21.60
2022-11-29T00:43:38.285Z,22.13
2022-11-29T00:46:05.854Z,20.98
2022-11-29T00:48:33.279Z,21.15
2022-11-29T00:51:00.248Z,20.92
2022-11-29T00:53:27.060Z,21.92
2022-11-29T00:55:54.265Z,21.60
2022-11-29T00:58:21.936Z,22.30
2022-11-29T01:00:49.150Z,22.80
2022-11-29T01:03:16.972Z,22.40
2022-11-29T01:05:44.301Z,21.48
2022-11-29T01:08:12.304Z,21.10
2022-11-29T01:10:39.139Z,20.85
2022-11-29T01:13:06.029Z,19.92
2022-11-29T01:15:33.160Z,20.50
2022-11-29T01:17:59.967Z,21.55
2022-11-29T01:20:27.252Z,22.02
2022-11-29T01:22:54.067Z,22.80
2022-11-29T01:25:21.127Z,22.40
2022-11-29T01:27:48.129Z,22.00
2022-11-29T01:30:15.112Z,21.27
2022-11-29T01:32:41.820Z,20.98
2022-11-29T01:35:08.895Z,22.58
2022-11-29T01:37:35.870Z,24.55
2022-11-29T01:40:02.664Z,23.00
2022-11-29T01:42:29.417Z,23.67
2022-11-29T01:45:03.249Z,21.75
2022-11-29T01:47:30.777Z,22.55
2022-11-29T01:49:57.603Z,24.35
2022-11-29T01:52:28.060Z,22.55
2022-11-29T01:54:58.035Z,24.15
2022-11-29T01:57:25.917Z,23.55
2022-11-29T02:00:00.484Z,24.83
2022-11-29T02:02:36.599Z,23.40
2022-11-29T02:05:04.591Z,22.15
2022-11-29T02:07:31.448Z,24.02
2022-11-29T02:09:58.273Z,24.77
2022-11-29T02:12:52.418Z,26.58
2022-11-29T02:15:36.572Z,27.27
2022-11-29T02:18:24.264Z,27.40
2022-11-29T02:21:28.851Z,24.92
2022-11-29T02:24:20.558Z,26.00
2022-11-29T02:26:53.350Z,23.25
2022-11-29T02:29:44.118Z,24.05
2022-11-29T02:32:48.459Z,23.20
2022-11-29T02:35:34.072Z,23.77
2022-11-29T02:38:31.889Z,23.77
2022-11-29T02:41:17.119Z,25.35
2022-11-29T02:44:00.787Z,24.67
2022-11-29T02:47:04.994Z,23.80
2022-11-29T02:50:10.902Z,25.10
2022-11-29T02:53:06.868Z,24.45
2022-11-29T02:56:08.193Z,26.48
2022-11-29T02:58:58.472Z,26.23
2022-11-29T03:01:41.750Z,30.38
2022-11-29T03:04:32.733Z,27.65
2022-11-29T03:07:34.728Z,24.90
2022-11-29T03:12:50.137Z,27.90
2022-11-29T03:15:30.588Z,29.38
2022-11-29T03:18:22.549Z,27.05
2022-11-29T03:21:32.406Z,27.13
2022-11-29T03:24:04.744Z,31.00
2022-11-29T03:26:49.291Z,30.95
2022-11-29T03:29:26.887Z,30.40
2022-11-29T03:32:13.696Z,28.33
2022-11-29T03:35:04.244Z,30.35
2022-11-29T03:37:53.076Z,28.90
2022-11-29T03:40:31.278Z,31.95
2022-11-29T03:43:10.623Z,33.33
2022-11-29T03:45:45.361Z,35.45
2022-11-29T03:48:18.728Z,34.28
2022-11-29T03:50:54.856Z,32.55
2022-11-29T03:53:36.917Z,31.10
2022-11-29T03:56:22.962Z,33.38
2022-11-29T03:58:49.547Z,33.17
2022-11-29T04:01:52.587Z,34.10
2022-11-29T04:04:37.236Z,35.15
2022-11-29T04:07:41.839Z,34.35
2022-11-29T04:10:47.187Z,32.40
2022-11-29T04:13:34.122Z,33.08
2022-11-29T04:16:22.865Z,34.55
2022-11-29T04:19:23.433Z,33.15
2022-11-29T04:22:17.876Z,34.55
2022-11-29T04:25:12.245Z,35.70
2022-11-29T04:27:49.249Z,36.50
2022-11-29T04:30:21.621Z,36.35
2022-11-29T04:32:57.124Z,34.30
2022-11-29T04:35:34.370Z,35.33
2022-11-29T04:38:19.459Z,35.83
2022-11-29T04:41:07.687Z,36.35
2022-11-29T04:44:02.453Z,36.80
2022-11-29T04:46:39.383Z,33.13
2022-11-29T04:49:23.749Z,35.38
2022-11-29T04:51:53.516Z,36.53
2022-11-29T04:54:26.123Z,35.97
2022-11-29T04:57:16.690Z,38.22
2022-11-29T05:00:15.410Z,38.22
2022-11-29T05:02:53.190Z,33.45
2022-11-29T05:05:47.648Z,35.13
2022-11-29T05:08:32.565Z,35.83
2022-11-29T05:11:11.897Z,35.50
2022-11-29T05:14:03.341Z,34.88
2022-11-29T05:16:52.797Z,38.10
2022-11-29T05:19:19.415Z,37.30
2022-11-29T05:22:00.947Z,38.22
2022-11-29T05:25:00.000Z,36.03
2022-11-29T05:27:37.693Z,35.50
2022-11-29T05:30:19.267Z,33.90
2022-11-29T05:32:59.554Z,34.90
2022-11-29T05:35:53.262Z,33.70
2022-11-29T05:38:29.021Z,32.35
2022-11-29T05:41:23.066Z,33.13
2022-11-29T05:44:00.817Z,33.85
2022-11-29T05:46:43.113Z,33.03
2022-11-29T05:49:39.306Z,33.92
2022-11-29T05:52:20.913Z,33.92
2022-11-29T05:55:14.870Z,34.03
2022-11-29T05:57:58.511Z,32.38
2022-11-29T06:00:29.577Z,31.92
2022-11-29T06:03:05.587Z,34.72
2022-11-29T06:05:34.877Z,34.15
2022-11-29T06:08:19.193Z,34.10
2022-11-29T06:11:06.374Z,34.13
2022-11-29T06:13:51.032Z,35.00
2022-11-29T06:16:47.768Z,34.53
2022-11-29T06:19:53.190Z,34.20
2022-11-29T06:22:33.246Z,32.97
2022-11-29T06:25:24.177Z,32.67
2022-11-29T06:28:17.031Z,32.83
2022-11-29T06:31:17.573Z,35.28
2022-11-29T06:33:59.858Z,33.33
2022-11-29T06:36:58.054Z,33.58
2022-11-29T06:39:25.050Z,33.83
2022-11-29T06:41:51.749Z,35.05
2022-11-29T06:44:18.839Z,30.75
2022-11-29T06:46:57.452Z,34.78
2022-11-29T06:49:27.214Z,35.65
2022-11-29T06:52:10.923Z,33.80
2022-11-29T06:54:58.406Z,34.17
2022-11-29T06:57:55.410Z,36.38
2022-11-29T07:00:54.108Z,35.50
2022-11-29T07:03:39.205Z,34.92
2022-11-29T07:06:20.496Z,30.75
2022-11-29T07:08:52.401Z,32.55
2022-11-29T07:11:19.307Z,34.55
2022-11-29T07:13:46.232Z,33.38
2022-11-29T07:16:24.933Z,30.83
2022-11-29T07:19:11.180Z,35.10
2022-11-29T07:21:59.919Z,34.35
2022-11-29T07:24:54.908Z,35.83
2022-11-29T07:27:40.151Z,34.08
2022-11-29T07:30:07.113Z,34.50
2022-11-29T07:33:00.533Z,33.83
2022-11-29T07:36:03.169Z,32.83
2022-11-29T07:39:14.197Z,32.95
2022-11-29T07:42:10.024Z,33.58
2022-11-29T07:44:46.564Z,32.40
2022-11-29T07:47:13.822Z,33.95
2022-11-29T07:49:40.481Z,36.63
2022-11-29T07:52:07.111Z,36.83
2022-11-29T07:54:33.825Z,35.97
2022-11-29T07:57:00.452Z,36.65
2022-11-29T07:59:27.189Z,35.03
2022-11-29T08:01:54.971Z,35.47
2022-11-29T08:04:21.635Z,35.85
2022-11-29T08:06:48.302Z,35.28
2022-11-29T08:09:14.915Z,38.97
2022-11-29T08:11:41.964Z,35.60
2022-11-29T08:14:08.590Z,36.15
2022-11-29T08:16:35.820Z,35.38
2022-11-29T08:19:02.579Z,35.13
2022-11-29T08:21:29.228Z,35.65
2022-11-29T08:23:55.842Z,36.42
2022-11-29T08:26:25.596Z,33.75
2022-11-29T08:28:56.877Z,35.35
2022-11-29T08:31:23.583Z,36.67
2022-11-29T08:33:50.290Z,34.03
2022-11-29T08:36:19.813Z,37.33
2022-11-29T08:38:47.853Z,36.53
2022-11-29T08:41:16.285Z,34.53
2022-11-29T08:43:43.579Z,35.58
2022-11-29T08:46:15.303Z,37.03
2022-11-29T08:48:45.633Z,33.78
2022-11-29T08:51:12.331Z,35.05
2022-11-29T08:53:41.811Z,34.58
2022-11-29T08:57:10.244Z,32.85
2022-11-29T08:59:07.932Z,32.08
2022-11-29T09:01:34.710Z,31.15
2022-11-29T09:04:05.063Z,30.23
2022-11-29T09:06:34.359Z,31.98
2022-11-29T09:09:01.246Z,29.10
2022-11-29T09:11:30.109Z,29.60
2022-11-29T09:14:00.634Z,31.00
2022-11-29T09:16:32.238Z,30.75
2022-11-29T09:18:59.039Z,30.13
2022-11-29T09:21:27.340Z,27.95
2022-11-29T09:23:58.727Z,30.15
2022-11-29T09:26:30.897Z,31.40
2022-11-29T09:29:01.836Z,30.10
2022-11-29T09:31:30.268Z,30.67
2022-11-29T09:33:57.507Z,29.83
2022-11-29T09:36:28.419Z,30.08
2022-11-29T09:42:00.007Z,27.92
2022-11-29T09:44:53.686Z,32.22
2022-11-29T09:47:56.323Z,29.67
2022-11-29T09:50:53.909Z,31.45
2022-11-29T09:53:26.433Z,30.20
2022-11-29T09:56:32.354Z,30.85
2022-11-29T09:59:51.260Z,32.20
2022-11-29T10:02:26.567Z,29.48
2022-11-29T10:04:57.931Z,29.25
2022-11-29T10:07:40.717Z,31.88
2022-11-29T10:10:26.144Z,30.42
2022-11-29T10:12:59.813Z,30.88
2022-11-29T10:15:34.306Z,30.83
2022-11-29T10:18:21.995Z,29.42
2022-11-29T10:20:51.733Z,30.13
2022-11-29T10:23:37.284Z,29.85
2022-11-29T10:26:07.929Z,27.35
2022-11-29T10:28:36.709Z,28.55
2022-11-29T10:31:26.805Z,29.38
2022-11-29T10:33:55.662Z,27.58
2022-11-29T10:36:38.938Z,29.40
2022-11-29T10:39:30.608Z,28.77
2022-11-29T10:42:01.981Z,29.23
2022-11-29T10:44:31.280Z,29.52
2022-11-29T10:46:59.912Z,27.80
2022-11-29T10:49:28.622Z,28.27
2022-11-29T10:51:55.485Z,26.65
2022-11-29T10:54:28.803Z,28.25
2022-11-29T10:57:00.628Z,26.52
2022-11-29T10:59:29.877Z,27.02
2022-11-29T11:01:57.916Z,28.55
2022-11-29T11:04:45.219Z,29.65
2022-11-29T11:07:41.372Z,29.92
2022-11-29T11:10:26.386Z,31.05
2022-11-29T11:13:05.383Z,30.75
2022-11-29T11:15:33.142Z,30.73
2022-11-29T11:18:05.505Z,30.80
2022-11-29T11:20:35.881Z,30.27
2022-11-29T11:23:06.560Z,30.90
2022-11-29T11:25:37.058Z,30.70
2022-11-29T11:28:21.992Z,29.13
2022-11-29T11:30:57.596Z,29.92
2022-11-29T11:33:27.246Z,32.35
2022-11-29T11:36:13.460Z,34.22
2022-11-29T11:38:50.194Z,32.17
2022-11-29T11:41:50.971Z,36.13
2022-11-29T11:44:47.573Z,33.42
2022-11-29T11:47:28.403Z,30.67
2022-11-29T11:50:02.040Z,32.38
2022-11-29T11:52:56.921Z,32.47
2022-11-29T11:55:36.589Z,31.10
2022-11-29T11:58:12.093Z,31.52
2022-11-29T12:01:05.530Z,31.13
2022-11-29T12:03:36.132Z,30.50
2022-11-29T12:06:27.138Z,29.23
2022-11-29T12:09:00.882Z,25.27
2022-11-29T12:11:37.151Z,24.02
2022-11-29T12:14:06.498Z,26.23
2022-11-29T12:16:38.158Z,25.38
2022-11-29T12:21:44.734Z,23.55
2022-11-29T12:24:29.519Z,21.48
2022-11-29T12:27:00.642Z,20.40
2022-11-29T12:29:33.407Z,20.88
2022-11-29T12:32:30.601Z,21.15
2022-11-29T12:35:27.702Z,22.10
2022-11-29T12:37:57.360Z,21.38
2022-11-29T12:40:44.138Z,23.97
2022-11-29T12:43:48.920Z,23.20
2022-11-29T12:46:21.049Z,23.50
2022-11-29T12:48:57.900Z,24.60
2022-11-29T12:51:46.565Z,23.75
2022-11-29T12:54:23.553Z,24.45
2022-11-29T12:57:14.254Z,25.60
2022-11-29T12:59:52.830Z,24.98
2022-11-29T13:02:48.552Z,23.85
2022-11-29T13:05:33.806Z,24.48
2022-11-29T13:08:22.455Z,26.52
2022-11-29T13:11:04.331Z,25.80
2022-11-29T13:13:42.013Z,27.75
2022-11-29T13:16:20.219Z,27.65
2022-11-29T13:19:28.307Z,28.60
2022-11-29T13:22:21.356Z,30.45
2022-11-29T13:25:06.098Z,27.48
2022-11-29T13:27:36.809Z,31.10
2022-11-29T13:30:04.449Z,31.95
2022-11-29T13:32:35.702Z,33.40
2022-11-29T13:35:22.567Z,33.03
2022-11-29T13:37:58.411Z,33.40
2022-11-29T13:41:02.148Z,29.30
2022-11-29T13:44:10.504Z,30.40
2022-11-29T13:46:43.876Z,27.67
2022-11-29T13:49:22.320Z,29.88
2022-11-29T13:52:03.127Z,28.20
2022-11-29T13:54:32.255Z,28.40
2022-11-29T13:57:07.671Z,25.27
2022-11-29T13:59:42.830Z,22.92
2022-11-29T14:02:31.059Z,22.23
2022-11-29T14:04:58.294Z,21.95
2022-11-29T14:07:25.006Z,18.70
2022-11-29T14:10:05.692Z,19.05
2022-11-29T14:12:55.243Z,18.88
2022-11-29T14:15:31.983Z,18.13
2022-11-29T14:18:08.777Z,18.50
2022-11-29T14:20:53.840Z,18.85
2022-11-29T14:23:34.179Z,20.98
2022-11-29T14:26:00.880Z,20.58
2022-11-29T14:28:33.300Z,20.48
2022-11-29T14:31:02.323Z,20.73
2022-11-29T14:33:41.151Z,20.00
2022-11-29T14:36:19.846Z,22.35
2022-11-29T14:39:10.330Z,18.42
2022-11-29T14:41:51.385Z,21.80
2022-11-29T14:44:20.529Z,23.27
2022-11-29T14:46:48.625Z,23.10
2022-11-29T14:49:22.864Z,21.98
2022-11-29T14:52:14.248Z,22.10
2022-11-29T14:55:04.152Z,22.98
2022-11-29T14:57:49.763Z,21.70
2022-11-29T15:00:21.983Z,22.70
2022-11-29T15:02:57.843Z,24.05
2022-11-29T15:05:37.918Z,22.25
2022-11-29T15:08:38.246Z,21.42
2022-11-29T15:11:14.549Z,22.27
2022-11-29T15:14:36.560Z,19.23
2022-11-29T15:17:16.693Z,20.17
2022-11-29T15:19:57.900Z,21.52
2022-11-29T15:22:36.387Z,22.13
2022-11-29T15:25:17.677Z,23.05
2022-11-29T15:27:56.084Z,21.75
2022-11-29T15:30:30.793Z,21.80
2022-11-29T15:32:59.722Z,20.90
2022-11-29T15:35:27.149Z,21.38
2022-11-29T15:37:54.605Z,22.75
2022-11-29T15:40:26.138Z,24.15
2022-11-29T15:43:01.841Z,22.70
2022-11-29T15:45:28.479Z,22.48
2022-11-29T15:48:10.167Z,23.50
2022-11-29T15:50:37.632Z,23.90
2022-11-29T15:53:11.307Z,22.50
2022-11-29T15:55:38.200Z,21.15
2022-11-29T15:58:08.668Z,21.05
2022-11-29T16:00:36.309Z,20.35
2022-11-29T16:03:04.997Z,18.20
2022-11-29T16:05:34.987Z,19.02
2022-11-29T16:08:05.456Z,20.23
2022-11-29T16:10:40.759Z,18.77
2022-11-29T16:13:33.887Z,17.95
2022-11-29T16:16:22.375Z,18.50
2022-11-29T16:18:51.003Z,16.25
2022-11-29T16:21:29.555Z,17.50
2022-11-29T16:23:57.881Z,16.63
2022-11-29T16:26:30.473Z,17.25
2022-11-29T16:29:00.937Z,17.83
2022-11-29T16:31:36.226Z,18.55
2022-11-29T16:34:24.611Z,18.27
2022-11-29T16:37:08.680Z,20.67
2022-11-29T16:39:38.266Z,21.02
2022-11-29T16:42:16.577Z,20.45
2022-11-29T16:44:45.542Z,21.48
2022-11-29T16:47:18.849Z,21.17
2022-11-29T16:49:45.873Z,18.83
2022-11-29T16:52:27.828Z,18.50
2022-11-29T16:54:54.631Z,18.90
2022-11-29T16:57:21.514Z,20.25
2022-11-29T16:59:48.670Z,21.05
2022-11-29T17:02:15.951Z,19.95
2022-11-29T17:04:43.554Z,20.60
2022-11-29T17:07:37.575Z,22.70
2022-11-29T17:10:07.777Z,20.15
2022-11-29T17:12:34.573Z,20.30
2022-11-29T17:15:01.245Z,22.38
2022-11-29T17:17:27.856Z,22.85
2022-11-29T17:19:54.505Z,24.00
2022-11-29T17:22:21.221Z,25.50
2022-11-29T17:24:48.734Z,22.92
2022-11-29T17:27:15.529Z,24.20
2022-11-29T17:29:42.136Z,22.90
2022-11-29T17:32:08.812Z,22.20
2022-11-29T17:34:35.545Z,21.65
2022-11-29T17:37:02.179Z,23.70
2022-11-29T17:39:28.815Z,25.08
2022-11-29T17:41:55.428Z,25.02
2022-11-29T17:44:22.418Z,24.08
2022-11-29T17:46:49.266Z,25.42
2022-11-29T17:49:15.897Z,25.65
2022-11-29T17:51:57.976Z,27.33
2022-11-29T17:54:24.711Z,25.92
2022-11-29T17:56:51.785Z,26.88
2022-11-29T17:59:18.506Z,26.55
2022-11-29T18:01:47.054Z,25.55
2022-11-29T18:04:14.069Z,27.02
2022-11-29T18:06:40.772Z,29.33
2022-11-29T18:09:09.522Z,30.60
2022-11-29T18:11:46.800Z,27.83
2022-11-29T18:14:17.231Z,28.52
2022-11-29T18:16:45.551Z,28.42
2022-11-29T18:19:14.705Z,28.95
2022-11-29T18:21:41.500Z,28.98
2022-11-29T18:24:08.282Z,29.75
2022-11-29T18:26:36.648Z,32.88
2022-11-29T18:29:05.332Z,35.75
2022-11-29T18:31:35.380Z,35.50
2022-11-29T18:34:06.850Z,33.97
2022-11-29T18:36:39.592Z,32.70
2022-11-29T18:39:11.320Z,31.67
2022-11-29T18:44:10.530Z,29.77
2022-11-29T18:46:39.374Z,31.65
2022-11-29T18:49:08.009Z,29.55
2022-11-29T18:51:36.241Z,30.00
2022-11-29T18:54:03.629Z,31.05
2022-11-29T18:56:32.794Z,31.80
2022-11-29T18:59:03.408Z,30.67
2022-11-29T19:01:32.428Z,32.15
2022-11-29T19:04:00.472Z,31.88
2022-11-29T19:06:35.426Z,29.75
2022-11-29T19:09:07.128Z,30.23
2022-11-29T19:11:34.386Z,31.50
2022-11-29T19:14:04.269Z,33.03
2022-11-29T19:16:33.969Z,32.33
2022-11-29T19:19:01.356Z,30.98
2022-11-29T19:21:31.789Z,29.80
2022-11-29T19:24:01.479Z,30.98
2022-11-29T19:26:30.083Z,29.95
2022-11-29T19:28:57.801Z,29.63
2022-11-29T19:31:26.875Z,31.00
2022-11-29T19:33:54.779Z,31.73
2022-11-29T19:36:25.035Z,30.38
2022-11-29T19:38:54.205Z,30.80
2022-11-29T19:41:32.503Z,32.05
2022-11-29T19:44:05.555Z,30.60
2022-11-29T19:46:34.928Z,31.30
2022-11-29T19:49:02.756Z,30.75
2022-11-29T19:51:30.340Z,31.33
2022-11-29T19:54:03.033Z,31.48
2022-11-29T19:56:31.187Z,30.27
2022-11-29T19:59:01.257Z,32.67
2022-11-29T20:01:40.662Z,31.00
2022-11-29T20:04:08.481Z,32.90
2022-11-29T20:06:35.591Z,31.85
2022-11-29T20:09:02.787Z,31.67
2022-11-29T20:11:29.769Z,29.92
2022-11-29T20:14:01.921Z,30.85
2022-11-29T20:16:30.169Z,32.72
2022-11-29T20:18:57.600Z,32.10
2022-11-29T20:21:29.838Z,31.92
2022-11-29T20:24:05.184Z,33.65
2022-11-29T20:26:34.378Z,33.05
2022-11-29T20:29:02.166Z,34.47
2022-11-29T20:31:29.419Z,32.53
2022-11-29T20:33:59.271Z,32.33
2022-11-29T20:36:53.208Z,33.20
2022-11-29T20:39:43.608Z,32.42
2022-11-29T20:42:26.864Z,31.58
2022-11-29T20:44:59.157Z,31.38
2022-11-29T20:47:30.123Z,32.80
2022-11-29T20:49:57.602Z,29.73
2022-11-29T20:52:34.973Z,30.02
2022-11-29T20:55:02.001Z,29.73
2022-11-29T20:57:28.817Z,29.27
2022-11-29T20:59:55.552Z,30.63
2022-11-29T21:02:22.990Z,30.30
2022-11-29T21:04:49.638Z,29.80
2022-11-29T21:07:16.382Z,30.17
2022-11-29T21:09:43.072Z,30.50
2022-11-29T21:12:10.412Z,30.17
2022-11-29T21:14:37.329Z,30.33
2022-11-29T21:17:04.440Z,32.80
2022-11-29T21:19:31.463Z,30.27
2022-11-29T21:22:21.841Z,30.95
2022-11-29T21:25:00.598Z,30.50
2022-11-29T21:27:31.658Z,31.25
2022-11-29T21:29:59.024Z,33.00
2022-11-29T21:32:27.073Z,31.48
2022-11-29T21:34:53.883Z,29.98
2022-11-29T21:37:24.881Z,31.98
2022-11-29T21:39:52.893Z,34.30
2022-11-29T21:42:19.761Z,31.20
2022-11-29T21:44:46.862Z,32.13
2022-11-29T21:47:13.770Z,32.75
2022-11-29T21:49:40.703Z,32.75
2022-11-29T21:52:07.404Z,33.30
2022-11-29T21:54:34.066Z,33.92
2022-11-29T21:57:00.790Z,30.70
2022-11-29T21:59:28.019Z,34.28
2022-11-29T22:01:54.916Z,33.75
2022-11-29T22:04:21.718Z,35.33
2022-11-29T22:06:48.440Z,33.13
2022-11-29T22:09:15.086Z,34.33
2022-11-29T22:11:42.412Z,34.20
2022-11-29T22:14:15.495Z,35.03
2022-11-29T22:16:46.746Z,36.65
2022-11-29T22:19:25.014Z,35.05
2022-11-29T22:22:03.471Z,35.42
2022-11-29T22:24:32.725Z,36.60
2022-11-29T22:26:59.609Z,33.45
2022-11-29T22:29:26.431Z,37.38
2022-11-29T22:31:55.390Z,37.30
2022-11-29T22:34:25.183Z,35.92
2022-11-29T22:36:52.393Z,35.42
2022-11-29T22:39:19.191Z,35.85
2022-11-29T22:41:52.289Z,37.95
2022-11-29T22:44:21.025Z,38.78
2022-11-29T22:46:47.760Z,39.30
2022-11-29T22:49:14.601Z,37.63
2022-11-29T22:51:41.246Z,39.55
2022-11-29T22:54:10.568Z,39.00
2022-11-29T22:56:40.583Z,39.17
2022-11-29T22:59:07.674Z,38.67
2022-11-29T23:01:36.364Z,38.70
2022-11-29T23:04:06.030Z,38.38
2022-11-29T23:06:37.899Z,36.58
2022-11-29T23:09:10.420Z,37.63
2022-11-29T23:11:37.650Z,37.85
2022-11-29T23:14:04.453Z,39.08
2022-11-29T23:16:32.556Z,38.47
2022-11-29T23:19:00.148Z,38.42
2022-11-29T23:21:32.426Z,38.92
2022-11-29T23:24:02.273Z,35.85
2022-11-29T23:26:41.068Z,39.50
2022-11-29T23:29:11.273Z,37.25
2022-11-29T23:31:38.471Z,39.25
2022-11-29T23:34:05.373Z,37.45
2022-11-29T23:36:32.186Z,38.00
2022-11-29T23:38:59.078Z,39.72
2022-11-29T23:41:25.773Z,39.53
2022-11-29T23:43:52.473Z,38.70
2022-11-29T23:46:21.728Z,39.85
2022-11-29T23:48:48.556Z,40.55
2022-11-29T23:51:16.119Z,40.08
2022-11-29T23:53:43.437Z,37.67
2022-11-29T23:56:13.408Z,37.10
2022-11-29T23:58:40.276Z,38.75
